KALI/ALI METAR and TAF weather

Enter ICAO airport designator
Station Type Date Time Source
KALI METAR 2021/05/16 00:30 UTC NOAA

KALI 160030Z AUTO 12019G24KT 10SM VCTS FEW003 FEW022 SCT044 26/21 A2990 RMK AO2 LTG DSNT N AND NW T02610211 $


Station Type Date Time Source
KALI Decoded METAR 2021/05/16 00:30 UTC NOAA

ALICE INTERNATIONAL AIRPORT, TX, United States (KALI) 27-44N 098-01W 53M
May 15, 2021 - 08:30 PM EDT / 2021.05.16 0030 UTC
Wind: from the ESE (120 degrees) at 22 MPH (19 KT) gusting to 28 MPH (24 KT):0
Visibility: 10 mile(s):0
Sky conditions: partly cloudy
Weather: thunder in the vicinity; Lightning observed
Temperature: 79.0 F (26.1 C)
Dew Point: 70.0 F (21.1 C)
Relative Humidity: 73%
Pressure (altimeter): 29.9 in. Hg (1012 hPa)
ob: KALI 160030Z AUTO 12019G24KT 10SM VCTS FEW003 FEW022 SCT044 26/21 A2990 RMK AO2 LTG DSNT N AND NW T02610211
cycle: 0

Station Type Date Time Source
KALI TAF 2021/05/15 18:42 UTC NOAA

TAF KALI 151741Z 1518/1618 13014G24KT P6SM VCSH BKN015 OVC100
FM160400 13010KT P6SM VCSH OVC015
TEMPO 1604/1606 -SHRA OVC008
FM160600 12011KT 4SM -SHRA OVC015
FM161400 15014G22KT P6SM OVC025

Example: see airport list